createdAt,value
2022-11-05T00:02:08.978Z,64.75
2022-11-05T00:04:57.922Z,64.89
2022-11-05T00:07:51.063Z,64.83
2022-11-05T00:10:24.671Z,64.90
2022-11-05T00:13:30.121Z,64.80
2022-11-05T00:16:30.083Z,64.95
2022-11-05T00:19:07.493Z,64.93
2022-11-05T00:21:57.721Z,64.91
2022-11-05T00:24:46.146Z,64.99
2022-11-05T00:27:17.005Z,64.93
2022-11-05T00:29:47.879Z,64.84
2022-11-05T00:32:19.368Z,64.95
2022-11-05T00:34:50.308Z,64.95
2022-11-05T00:37:21.135Z,65.13
2022-11-05T00:39:52.058Z,64.82
2022-11-05T00:42:40.718Z,64.93
2022-11-05T00:45:12.845Z,64.81
2022-11-05T00:48:02.241Z,64.84
2022-11-05T00:50:34.128Z,64.85
2022-11-05T00:53:05.409Z,64.93
2022-11-05T00:55:39.212Z,65.00
2022-11-05T00:58:12.437Z,64.95
2022-11-05T01:00:45.932Z,65.12
2022-11-05T01:03:19.771Z,65.09
2022-11-05T01:05:52.610Z,65.11
2022-11-05T01:08:24.885Z,65.14
2022-11-05T01:10:57.845Z,65.23
2022-11-05T01:13:30.777Z,65.04
2022-11-05T01:16:08.795Z,65.29
2022-11-05T01:18:40.853Z,65.16
2022-11-05T01:21:16.738Z,65.04
2022-11-05T01:23:47.613Z,65.27
2022-11-05T01:26:18.499Z,65.47
2022-11-05T01:28:53.468Z,65.13
2022-11-05T01:31:23.331Z,65.18
2022-11-05T01:33:54.168Z,65.25
2022-11-05T01:36:25.038Z,65.11
2022-11-05T01:38:55.849Z,65.27
2022-11-05T01:41:26.604Z,65.39
2022-11-05T01:44:00.112Z,65.21
2022-11-05T01:46:33.655Z,65.27
2022-11-05T01:49:14.824Z,65.41
2022-11-05T01:51:48.413Z,65.31
2022-11-05T01:54:23.292Z,65.48
2022-11-05T01:56:59.525Z,65.24
2022-11-05T01:59:35.991Z,65.51
2022-11-05T02:02:09.274Z,65.48
2022-11-05T02:04:46.287Z,65.53
2022-11-05T02:07:18.257Z,65.61
2022-11-05T02:09:54.600Z,65.72
2022-11-05T02:12:26.034Z,65.52
2022-11-05T02:14:57.119Z,65.56
2022-11-05T02:17:37.602Z,65.79
2022-11-05T02:20:27.171Z,65.85
2022-11-05T02:23:32.866Z,65.98
2022-11-05T02:26:26.671Z,65.87
2022-11-05T02:29:23.101Z,66.08
2022-11-05T02:32:04.302Z,66.36
2022-11-05T02:34:42.518Z,66.21
2022-11-05T02:37:26.582Z,66.19
2022-11-05T02:40:07.710Z,66.36
2022-11-05T02:42:46.580Z,66.25
2022-11-05T02:45:27.876Z,66.46
2022-11-05T02:48:08.939Z,66.50
2022-11-05T02:50:47.519Z,66.65
2022-11-05T02:53:29.336Z,66.72
2022-11-05T02:56:06.571Z,66.44
2022-11-05T02:58:37.760Z,66.60
2022-11-05T03:01:10.646Z,66.64
2022-11-05T03:03:44.602Z,66.79
2022-11-05T03:06:49.484Z,66.83
2022-11-05T03:09:44.959Z,66.84
2022-11-05T03:12:27.788Z,66.85
2022-11-05T03:15:09.275Z,66.97
2022-11-05T03:17:52.567Z,67.17
2022-11-05T03:20:30.692Z,67.04
2022-11-05T03:23:10.703Z,67.05
2022-11-05T03:25:46.036Z,67.19
2022-11-05T03:28:19.566Z,67.31
2022-11-05T03:30:53.570Z,67.38
2022-11-05T03:33:28.794Z,67.26
2022-11-05T03:36:00.099Z,67.49
2022-11-05T03:38:35.693Z,67.53
2022-11-05T03:41:11.078Z,67.70
2022-11-05T03:43:48.043Z,67.77
2022-11-05T03:46:24.106Z,67.71
2022-11-05T03:48:58.493Z,67.86
2022-11-05T03:51:39.911Z,67.82
2022-11-05T03:54:11.611Z,67.76
2022-11-05T03:56:47.676Z,68.02
2022-11-05T03:59:20.499Z,68.08
2022-11-05T04:01:52.427Z,68.02
2022-11-05T04:04:23.504Z,67.95
2022-11-05T04:07:20.314Z,68.08
2022-11-05T04:10:08.752Z,68.11
2022-11-05T04:12:57.529Z,68.28
2022-11-05T04:15:29.693Z,68.33
2022-11-05T04:18:00.505Z,68.40
2022-11-05T04:20:48.736Z,68.21
2022-11-05T04:23:37.388Z,68.25
2022-11-05T04:26:08.323Z,68.56
2022-11-05T04:28:52.956Z,68.57
2022-11-05T04:31:23.831Z,68.52
2022-11-05T04:33:54.742Z,68.54
2022-11-05T04:36:25.767Z,68.51
2022-11-05T04:38:56.696Z,68.78
2022-11-05T04:41:27.834Z,68.84
2022-11-05T04:43:58.673Z,68.90
2022-11-05T04:46:29.834Z,68.79
2022-11-05T04:49:00.687Z,68.85
2022-11-05T04:51:31.491Z,69.02
2022-11-05T04:54:02.393Z,69.26
2022-11-05T04:56:33.577Z,69.12
2022-11-05T04:59:04.458Z,69.30
2022-11-05T05:01:35.308Z,69.18
2022-11-05T05:04:06.300Z,68.93
2022-11-05T05:06:38.478Z,69.07
2022-11-05T05:09:09.322Z,69.36
2022-11-05T05:11:41.149Z,69.48
2022-11-05T05:14:12.599Z,69.44
2022-11-05T05:16:43.502Z,69.49
2022-11-05T05:19:14.279Z,69.57
2022-11-05T05:21:45.087Z,69.66
2022-11-05T05:24:18.775Z,69.75
2022-11-05T05:26:51.929Z,69.87
2022-11-05T05:29:22.703Z,70.10
2022-11-05T05:31:53.544Z,70.41
2022-11-05T05:34:24.373Z,70.41
2022-11-05T05:36:55.169Z,70.52
2022-11-05T05:39:27.033Z,70.41
2022-11-05T05:41:57.855Z,70.75
2022-11-05T05:44:28.721Z,71.06
2022-11-05T05:46:59.560Z,71.23
2022-11-05T05:49:30.661Z,71.30
2022-11-05T05:52:01.419Z,71.44
2022-11-05T05:54:34.275Z,71.52
2022-11-05T05:57:08.090Z,71.59
2022-11-05T05:59:39.190Z,71.79
2022-11-05T06:02:10.974Z,71.75
2022-11-05T06:04:41.934Z,71.97
2022-11-05T06:07:12.726Z,71.96
2022-11-05T06:09:43.510Z,72.21
2022-11-05T06:12:14.340Z,71.91
2022-11-05T06:14:45.204Z,71.99
2022-11-05T06:17:16.056Z,72.14
2022-11-05T06:19:47.376Z,72.41
2022-11-05T06:22:18.167Z,72.60
2022-11-05T06:24:49.035Z,72.65
2022-11-05T06:27:19.848Z,72.70
2022-11-05T06:29:50.631Z,72.58
2022-11-05T06:32:21.450Z,72.67
2022-11-05T06:34:52.284Z,72.74
2022-11-05T06:37:23.061Z,72.79
2022-11-05T06:39:53.847Z,72.71
2022-11-05T06:42:25.408Z,72.60
2022-11-05T06:44:56.311Z,72.63
2022-11-05T06:47:27.060Z,72.73
2022-11-05T06:49:58.240Z,72.73
2022-11-05T06:52:31.380Z,72.64
2022-11-05T06:55:02.193Z,72.56
2022-11-05T06:57:33.341Z,72.57
2022-11-05T07:00:07.823Z,72.52
2022-11-05T07:02:39.013Z,72.51
2022-11-05T07:05:11.732Z,72.80
2022-11-05T07:07:43.221Z,72.83
2022-11-05T07:10:16.866Z,72.94
2022-11-05T07:12:47.651Z,72.83
2022-11-05T07:15:18.618Z,72.69
2022-11-05T07:17:49.917Z,72.79
2022-11-05T07:20:20.809Z,72.74
2022-11-05T07:22:51.646Z,72.53
2022-11-05T07:25:22.491Z,72.50
2022-11-05T07:27:53.624Z,72.50
2022-11-05T07:30:24.394Z,72.51
2022-11-05T07:32:55.166Z,72.44
2022-11-05T07:35:26.175Z,72.48
2022-11-05T07:37:57.631Z,72.29
2022-11-05T07:40:30.564Z,72.24
2022-11-05T07:43:02.567Z,72.44
2022-11-05T07:45:33.981Z,72.52
2022-11-05T07:48:06.049Z,72.55
2022-11-05T07:50:38.181Z,72.65
2022-11-05T07:53:12.120Z,72.52
2022-11-05T07:55:46.105Z,72.58
2022-11-05T07:58:16.981Z,72.64
2022-11-05T08:00:49.943Z,72.44
2022-11-05T08:03:21.970Z,72.31
2022-11-05T08:05:53.923Z,72.10
2022-11-05T08:08:25.145Z,71.98
2022-11-05T08:11:04.990Z,72.04
2022-11-05T08:13:37.760Z,71.98
2022-11-05T08:16:10.855Z,71.98
2022-11-05T08:18:42.900Z,72.17
2022-11-05T08:21:16.738Z,72.08
2022-11-05T08:23:48.630Z,72.21
2022-11-05T08:26:20.833Z,72.16
2022-11-05T08:28:52.071Z,72.03
2022-11-05T08:31:23.328Z,72.00
2022-11-05T08:33:59.680Z,71.91
2022-11-05T08:36:35.568Z,72.25
2022-11-05T08:39:06.637Z,71.99
2022-11-05T08:41:38.240Z,71.70
2022-11-05T08:44:12.422Z,71.66
2022-11-05T08:46:44.218Z,72.00
2022-11-05T08:49:15.269Z,72.04
2022-11-05T08:51:47.851Z,71.79
2022-11-05T08:54:18.741Z,71.72
2022-11-05T08:56:52.342Z,71.86
2022-11-05T08:59:25.130Z,71.76
2022-11-05T09:01:56.641Z,71.61
2022-11-05T09:04:28.069Z,71.63
2022-11-05T09:06:59.866Z,71.68
2022-11-05T09:09:32.950Z,71.59
2022-11-05T09:12:12.992Z,71.67
2022-11-05T09:14:44.910Z,71.59
2022-11-05T09:17:23.443Z,71.58
2022-11-05T09:19:54.717Z,71.69
2022-11-05T09:22:26.081Z,71.56
2022-11-05T09:24:58.767Z,71.62
2022-11-05T09:27:31.597Z,71.41
2022-11-05T09:30:02.660Z,71.55
2022-11-05T09:32:35.543Z,71.49
2022-11-05T09:35:10.825Z,71.50
2022-11-05T09:37:40.792Z,71.30
2022-11-05T09:40:19.591Z,71.21
2022-11-05T09:42:52.809Z,71.43
2022-11-05T09:45:28.260Z,71.40
2022-11-05T09:48:05.654Z,71.47
2022-11-05T09:50:41.440Z,71.34
2022-11-05T09:53:18.503Z,71.13
2022-11-05T09:55:56.850Z,71.10
2022-11-05T09:58:37.489Z,71.08
2022-11-05T10:01:13.528Z,70.98
2022-11-05T10:03:47.635Z,71.00
2022-11-05T10:06:24.091Z,71.10
2022-11-05T10:09:02.448Z,71.38
2022-11-05T10:11:38.372Z,71.22
2022-11-05T10:14:18.348Z,71.07
2022-11-05T10:16:54.251Z,71.05
2022-11-05T10:19:27.974Z,70.81
2022-11-05T10:22:10.894Z,70.99
2022-11-05T10:24:46.533Z,71.01
2022-11-05T10:27:21.261Z,70.95
2022-11-05T10:29:54.081Z,70.88
2022-11-05T10:32:40.247Z,70.83
2022-11-05T10:35:18.551Z,70.97
2022-11-05T10:37:53.770Z,70.88
2022-11-05T10:40:29.491Z,70.73
2022-11-05T10:43:07.433Z,70.81
2022-11-05T10:45:47.535Z,70.79
2022-11-05T10:48:43.866Z,70.67
2022-11-05T10:51:16.263Z,70.73
2022-11-05T10:54:01.345Z,70.64
2022-11-05T10:56:36.999Z,70.69
2022-11-05T10:59:23.407Z,70.96
2022-11-05T11:02:04.604Z,71.22
2022-11-05T11:04:38.050Z,71.16
2022-11-05T11:07:23.510Z,71.13
2022-11-05T11:09:55.109Z,71.16
2022-11-05T11:12:29.005Z,71.41
2022-11-05T11:15:15.236Z,71.31
2022-11-05T11:17:46.587Z,71.24
2022-11-05T11:20:30.185Z,71.33
2022-11-05T11:23:12.537Z,71.36
2022-11-05T11:25:51.483Z,71.41
2022-11-05T11:28:29.870Z,71.76
2022-11-05T11:31:07.977Z,71.70
2022-11-05T11:33:45.804Z,71.92
2022-11-05T11:36:19.706Z,71.91
2022-11-05T11:38:50.738Z,72.04
2022-11-05T11:41:31.110Z,72.25
2022-11-05T11:44:07.583Z,72.30
2022-11-05T11:46:39.195Z,72.10
2022-11-05T11:49:35.107Z,72.23
2022-11-05T11:52:11.874Z,72.37
2022-11-05T11:54:43.464Z,72.48
2022-11-05T11:57:25.821Z,72.42
2022-11-05T12:00:09.455Z,72.29
2022-11-05T12:03:02.271Z,72.26
2022-11-05T12:05:51.569Z,72.54
2022-11-05T12:08:58.216Z,72.60
2022-11-05T12:11:40.554Z,72.56
2022-11-05T12:14:23.839Z,72.51
2022-11-05T12:17:32.570Z,72.41
2022-11-05T12:20:41.988Z,72.62
2022-11-05T12:23:43.154Z,72.97
2022-11-05T12:26:24.953Z,72.99
2022-11-05T12:29:20.032Z,73.28
2022-11-05T12:32:12.106Z,73.21
2022-11-05T12:34:54.284Z,73.34
2022-11-05T12:37:33.695Z,73.36
2022-11-05T12:40:35.292Z,73.54
2022-11-05T12:43:18.415Z,73.61
2022-11-05T12:45:56.890Z,73.57
2022-11-05T12:48:46.640Z,73.09
2022-11-05T12:51:35.262Z,72.77
2022-11-05T12:54:21.239Z,72.76
2022-11-05T12:56:58.049Z,72.57
2022-11-05T12:59:36.121Z,72.67
2022-11-05T13:02:18.009Z,72.91
2022-11-05T13:04:53.258Z,73.00
2022-11-05T13:07:25.174Z,73.12
2022-11-05T13:10:01.067Z,73.00
2022-11-05T13:12:39.229Z,73.25
2022-11-05T13:15:23.000Z,73.08
2022-11-05T13:17:58.526Z,73.19
2022-11-05T13:20:34.209Z,73.30
2022-11-05T13:23:14.267Z,73.22
2022-11-05T13:25:53.819Z,73.38
2022-11-05T13:28:37.119Z,73.72
2022-11-05T13:31:15.252Z,74.00
2022-11-05T13:33:48.492Z,74.12
2022-11-05T13:36:41.347Z,74.10
2022-11-05T13:39:19.474Z,74.24
2022-11-05T13:42:23.553Z,74.23
2022-11-05T13:45:30.132Z,74.16
2022-11-05T13:48:26.576Z,74.05
2022-11-05T13:51:36.158Z,73.87
2022-11-05T13:54:49.096Z,73.83
2022-11-05T13:57:44.595Z,74.16
2022-11-05T14:00:20.168Z,74.28
2022-11-05T14:02:55.359Z,74.23
2022-11-05T14:05:35.387Z,74.00
2022-11-05T14:08:15.095Z,74.06
2022-11-05T14:10:57.924Z,73.91
2022-11-05T14:13:36.596Z,73.81
2022-11-05T14:16:11.639Z,73.93
2022-11-05T14:18:46.499Z,74.05
2022-11-05T14:21:47.546Z,74.13
2022-11-05T14:24:44.417Z,74.06
2022-11-05T14:27:44.591Z,74.21
2022-11-05T14:30:47.305Z,74.49
2022-11-05T14:33:33.250Z,74.62
2022-11-05T14:36:32.395Z,74.62
2022-11-05T14:39:19.540Z,74.73
2022-11-05T14:42:01.948Z,74.70
2022-11-05T14:44:34.903Z,74.72
2022-11-05T14:47:09.034Z,74.68
2022-11-05T14:49:53.080Z,74.92
2022-11-05T14:52:25.018Z,74.71
2022-11-05T14:54:58.955Z,74.81
2022-11-05T14:58:06.050Z,74.93
2022-11-05T15:00:52.011Z,74.83
2022-11-05T15:04:07.020Z,74.94
2022-11-05T15:06:38.566Z,75.05
2022-11-05T15:09:30.902Z,75.19
2022-11-05T15:12:10.185Z,75.27
2022-11-05T15:14:51.509Z,75.38
2022-11-05T15:17:30.156Z,75.23
2022-11-05T15:20:16.721Z,75.08
2022-11-05T15:22:52.803Z,75.15
2022-11-05T15:25:28.133Z,75.14
2022-11-05T15:28:08.356Z,75.17
2022-11-05T15:30:39.565Z,75.22
2022-11-05T15:33:21.494Z,75.29
2022-11-05T15:35:52.428Z,75.10
2022-11-05T15:38:34.157Z,75.34
2022-11-05T15:41:07.677Z,75.25
2022-11-05T15:43:48.089Z,75.35
2022-11-05T15:46:22.181Z,75.47
2022-11-05T15:48:55.267Z,75.60
2022-11-05T15:51:27.802Z,75.59
2022-11-05T15:54:28.637Z,75.77
2022-11-05T15:56:55.911Z,75.62
2022-11-05T15:59:29.801Z,75.50
2022-11-05T16:02:07.041Z,75.39
2022-11-05T16:04:38.485Z,75.31
2022-11-05T16:07:13.260Z,75.41
2022-11-05T16:09:59.006Z,75.42
2022-11-05T16:12:40.509Z,75.53
2022-11-05T16:15:26.715Z,75.58
2022-11-05T16:17:59.805Z,75.97
2022-11-05T16:20:34.271Z,76.05
2022-11-05T16:23:07.980Z,75.99
2022-11-05T16:25:44.118Z,76.13
2022-11-05T16:28:25.745Z,76.17
2022-11-05T16:31:03.254Z,76.13
2022-11-05T16:33:44.826Z,75.91
2022-11-05T16:36:15.797Z,75.91
2022-11-05T16:38:47.651Z,75.74
2022-11-05T16:41:20.407Z,75.58
2022-11-05T16:43:56.508Z,75.47
2022-11-05T16:46:29.697Z,75.17
2022-11-05T16:49:02.990Z,75.33
2022-11-05T16:51:34.564Z,75.40
2022-11-05T16:54:06.154Z,75.36
2022-11-05T16:56:38.039Z,75.48
2022-11-05T16:59:12.314Z,75.44
2022-11-05T17:01:45.223Z,75.46
2022-11-05T17:04:16.324Z,75.42
2022-11-05T17:06:50.165Z,75.32
2022-11-05T17:09:21.519Z,75.34
2022-11-05T17:11:52.778Z,75.28
2022-11-05T17:14:23.718Z,75.36
2022-11-05T17:16:54.814Z,75.43
2022-11-05T17:19:29.347Z,75.38
2022-11-05T17:22:08.185Z,75.36
2022-11-05T17:24:39.706Z,75.36
2022-11-05T17:27:10.989Z,75.45
2022-11-05T17:29:42.308Z,75.29
2022-11-05T17:32:13.362Z,75.46
2022-11-05T17:34:45.159Z,75.31
2022-11-05T17:37:16.112Z,75.48
2022-11-05T17:39:47.022Z,75.56
2022-11-05T17:42:18.267Z,75.70
2022-11-05T17:44:50.011Z,75.68
2022-11-05T17:47:21.825Z,75.68
2022-11-05T17:49:53.199Z,75.67
2022-11-05T17:52:24.515Z,75.74
2022-11-05T17:54:55.476Z,75.62
2022-11-05T17:57:30.046Z,75.81
2022-11-05T18:00:05.302Z,75.89
2022-11-05T18:02:42.070Z,75.76
2022-11-05T18:05:16.276Z,75.81
2022-11-05T18:07:51.941Z,75.81
2022-11-05T18:10:23.467Z,75.81
2022-11-05T18:12:55.251Z,75.92
2022-11-05T18:15:30.697Z,75.95
2022-11-05T18:18:02.084Z,75.88
2022-11-05T18:20:34.174Z,75.92
2022-11-05T18:23:05.584Z,75.99
2022-11-05T18:25:36.596Z,75.87
2022-11-05T18:28:07.978Z,75.96
2022-11-05T18:30:40.827Z,75.95
2022-11-05T18:33:12.086Z,75.79
2022-11-05T18:35:46.427Z,75.87
2022-11-05T18:38:17.516Z,75.89
2022-11-05T18:40:48.445Z,75.74
2022-11-05T18:43:19.540Z,75.64
2022-11-05T18:45:57.697Z,75.57
2022-11-05T18:48:28.581Z,75.70
2022-11-05T18:51:02.030Z,75.63
2022-11-05T18:53:33.530Z,75.59
2022-11-05T18:56:10.247Z,75.35
2022-11-05T18:58:43.023Z,75.40
2022-11-05T19:01:18.267Z,75.25
2022-11-05T19:03:51.268Z,75.43
2022-11-05T19:06:22.493Z,75.26
2022-11-05T19:08:53.946Z,75.24
2022-11-05T19:11:26.506Z,75.24
2022-11-05T19:13:57.637Z,75.38
2022-11-05T19:16:30.740Z,75.27
2022-11-05T19:19:03.261Z,75.40
2022-11-05T19:21:34.691Z,75.30
2022-11-05T19:24:06.639Z,75.19
2022-11-05T19:26:37.617Z,75.12
2022-11-05T19:29:08.835Z,75.33
2022-11-05T19:31:39.997Z,75.27
2022-11-05T19:34:11.457Z,75.40
2022-11-05T19:36:43.541Z,75.31
2022-11-05T19:39:16.566Z,75.22
2022-11-05T19:41:49.387Z,75.33
2022-11-05T19:44:20.287Z,75.37
2022-11-05T19:46:51.371Z,75.44
2022-11-05T19:49:22.247Z,75.34
2022-11-05T19:51:53.074Z,75.55
2022-11-05T19:54:24.074Z,75.57
2022-11-05T19:56:56.759Z,75.51
2022-11-05T19:59:35.507Z,75.42
2022-11-05T20:02:13.292Z,75.46
2022-11-05T20:04:47.278Z,75.44
2022-11-05T20:07:20.597Z,75.56
2022-11-05T20:09:51.439Z,75.49
2022-11-05T20:12:22.550Z,75.41
2022-11-05T20:14:53.749Z,75.42
2022-11-05T20:17:24.840Z,75.37
2022-11-05T20:19:56.502Z,75.44
2022-11-05T20:22:27.390Z,75.41
2022-11-05T20:24:58.629Z,75.59
2022-11-05T20:27:30.016Z,75.41
2022-11-05T20:30:01.098Z,75.12
2022-11-05T20:32:32.038Z,75.21
2022-11-05T20:35:03.299Z,75.38
2022-11-05T20:37:34.607Z,75.29
2022-11-05T20:40:06.972Z,75.45
2022-11-05T20:42:39.624Z,75.39
2022-11-05T20:45:11.876Z,75.18
2022-11-05T20:47:43.765Z,75.33
2022-11-05T20:50:14.615Z,75.54
2022-11-05T20:52:45.483Z,75.49
2022-11-05T20:55:16.610Z,75.51
2022-11-05T20:57:47.514Z,75.41
2022-11-05T21:00:19.881Z,75.19
2022-11-05T21:02:51.123Z,75.29
2022-11-05T21:05:22.448Z,75.37
2022-11-05T21:07:53.568Z,75.41
2022-11-05T21:10:26.282Z,75.38
2022-11-05T21:12:57.450Z,75.31
2022-11-05T21:15:28.562Z,75.31
2022-11-05T21:18:00.649Z,75.32
2022-11-05T21:20:32.093Z,75.32
2022-11-05T21:23:03.178Z,75.36
2022-11-05T21:25:34.441Z,75.39
2022-11-05T21:28:05.544Z,75.53
2022-11-05T21:30:37.588Z,75.56
2022-11-05T21:33:09.296Z,75.70
2022-11-05T21:35:44.976Z,75.58
2022-11-05T21:38:17.807Z,75.49
2022-11-05T21:40:48.865Z,75.46
2022-11-05T21:43:19.930Z,75.36
2022-11-05T21:45:50.955Z,75.29
2022-11-05T21:48:22.159Z,75.44
2022-11-05T21:51:12.556Z,75.54
2022-11-05T21:54:01.582Z,75.33
2022-11-05T21:56:50.886Z,75.36
2022-11-05T21:59:41.421Z,75.26
2022-11-05T22:02:14.928Z,75.44
2022-11-05T22:04:47.969Z,75.56
2022-11-05T22:07:21.472Z,75.55
2022-11-05T22:09:53.180Z,75.50
2022-11-05T22:12:25.587Z,75.43
2022-11-05T22:14:57.165Z,75.35
2022-11-05T22:17:28.745Z,75.49
2022-11-05T22:19:59.684Z,75.55
2022-11-05T22:22:30.831Z,75.41
2022-11-05T22:25:02.216Z,75.56
2022-11-05T22:27:33.276Z,75.27
2022-11-05T22:30:04.893Z,75.16
2022-11-05T22:32:35.880Z,75.31
2022-11-05T22:35:08.496Z,75.30
2022-11-05T22:37:39.438Z,75.38
2022-11-05T22:40:12.968Z,75.35
2022-11-05T22:42:43.866Z,75.38
2022-11-05T22:45:15.166Z,75.29
2022-11-05T22:47:46.506Z,75.23
2022-11-05T22:50:17.591Z,75.37
2022-11-05T22:52:48.693Z,75.58
2022-11-05T22:55:19.698Z,75.39
2022-11-05T22:57:50.686Z,75.30
2022-11-05T23:00:22.800Z,75.58
2022-11-05T23:02:54.375Z,75.27
2022-11-05T23:05:25.795Z,75.22
2022-11-05T23:08:14.357Z,75.28
2022-11-05T23:11:03.804Z,75.43
2022-11-05T23:13:35.257Z,75.28
2022-11-05T23:16:24.326Z,75.31
2022-11-05T23:19:12.782Z,75.35
2022-11-05T23:22:01.682Z,75.37
2022-11-05T23:24:32.954Z,75.33
2022-11-05T23:27:04.474Z,75.34
2022-11-05T23:29:35.956Z,75.35
2022-11-05T23:32:25.378Z,75.41
2022-11-05T23:34:58.306Z,75.22
2022-11-05T23:37:51.547Z,75.25
2022-11-05T23:40:25.811Z,74.95
2022-11-05T23:43:15.384Z,74.90
2022-11-05T23:46:05.234Z,74.91
2022-11-05T23:48:38.503Z,74.86
2022-11-05T23:51:12.460Z,74.77
2022-11-05T23:53:44.455Z,75.00
2022-11-05T23:56:16.727Z,75.04
2022-11-05T23:58:48.835Z,75.03
